Time;durP1;ratioP1;P1;durP2;ratioP2;P2;SDS_P1;SDS_P2;PMS_P1;PMS_P2;Temp;Humidity;BMP_temperature;BMP_pressure;BME280_temperature;BME280_humidity;BME280_pressure;Samples;Min_cycle;Max_cycle;Signal;HPM_P1;HPM_P2
2022/05/08 00:02:19;;;;;;;;;18.00;17.25;;;;;18.68;41.32;101876.31;4979832;28;45319;-58
2022/05/08 00:04:50;;;;;;;;;19.50;18.75;;;;;18.65;41.06;101876.38;4980049;28;45405;-59
2022/05/08 00:07:16;;;;;;;;;25.25;23.25;;;;;18.62;41.02;101879.16;4980069;28;46429;-59
2022/05/08 00:09:42;;;;;;;;;20.50;18.75;;;;;18.60;41.22;101878.31;4962039;28;45189;-59
2022/05/08 00:12:11;;;;;;;;;24.50;20.75;;;;;18.57;41.11;101873.97;4980206;28;45512;-59
2022/05/08 00:14:36;;;;;;;;;28.25;25.00;;;;;18.55;41.47;101869.59;4979453;28;45330;-59
2022/05/08 00:17:02;;;;;;;;;18.00;18.00;;;;;18.50;41.53;101865.28;4979885;28;45324;-59
2022/05/08 00:19:27;;;;;;;;;25.25;23.25;;;;;18.40;41.60;101853.19;4979848;28;45352;-59
2022/05/08 00:21:52;;;;;;;;;23.75;21.00;;;;;18.47;41.69;101873.34;4980063;28;45403;-58
2022/05/08 00:24:18;;;;;;;;;24.00;20.25;;;;;18.45;41.65;101869.88;4979720;28;45343;-58
2022/05/08 00:26:43;;;;;;;;;28.25;26.00;;;;;18.40;41.71;101870.91;4980068;28;45425;-59
2022/05/08 00:29:10;;;;;;;;;20.75;20.75;;;;;18.39;41.67;101872.72;4979616;28;45412;-59
2022/05/08 00:31:36;;;;;;;;;21.00;16.75;;;;;18.36;41.98;101864.81;4979802;28;45268;-59
2022/05/08 00:34:03;;;;;;;;;24.00;22.25;;;;;18.31;41.75;101858.75;4979681;28;45185;-59
2022/05/08 00:36:28;;;;;;;;;25.00;23.25;;;;;18.29;41.84;101864.13;4979954;28;46158;-58
2022/05/08 00:38:55;;;;;;;;;26.00;24.75;;;;;18.28;42.01;101869.50;4979265;28;45444;-58
2022/05/08 00:41:21;;;;;;;;;24.75;21.75;;;;;18.25;41.90;101866.91;4979804;28;45346;-58
2022/05/08 00:43:46;;;;;;;;;21.50;21.50;;;;;18.21;41.97;101867.91;4983478;28;45364;-58
2022/05/08 00:46:13;;;;;;;;;22.50;19.25;;;;;18.19;42.15;101866.16;5000808;28;45393;-58
2022/05/08 00:48:39;;;;;;;;;19.00;18.25;;;;;18.17;42.06;101867.13;4979368;28;45336;-58
2022/05/08 00:51:08;;;;;;;;;24.25;21.00;;;;;18.13;42.51;101866.34;4979823;28;45272;-58
2022/05/08 00:53:40;;;;;;;;;21.00;20.50;;;;;18.09;42.22;101862.03;4979439;28;45279;-58
2022/05/08 00:56:10;;;;;;;;;24.75;22.00;;;;;17.97;42.09;101855.25;4979330;28;46829;-59
2022/05/08 00:58:37;;;;;;;;;20.25;19.25;;;;;18.03;42.31;101864.84;4979152;28;45414;-59
2022/05/08 01:01:04;;;;;;;;;22.25;21.25;;;;;17.99;42.29;101865.88;4980100;28;45442;-59
2022/05/08 01:03:30;;;;;;;;;25.75;21.75;;;;;17.97;42.31;101867.69;4965182;28;45285;-59
2022/05/08 01:05:56;;;;;;;;;17.50;16.75;;;;;17.90;42.66;101861.63;4982733;28;45328;-64
2022/05/08 01:08:23;;;;;;;;;24.50;22.50;;;;;17.90;42.42;101869.63;4982542;28;45192;-58
2022/05/08 01:10:48;;;;;;;;;20.25;20.25;;;;;17.85;42.43;101864.41;4982963;28;45330;-58
2022/05/08 01:13:14;;;;;;;;;19.75;19.00;;;;;17.82;42.57;101860.97;4982494;28;45243;-60
2022/05/08 01:15:40;;;;;;;;;16.75;14.75;;;;;17.79;42.60;101872.53;4982477;28;46486;-60
2022/05/08 01:18:06;;;;;;;;;22.25;19.75;;;;;17.78;42.60;101876.13;4982598;28;45341;-60
2022/05/08 01:20:31;;;;;;;;;23.25;19.00;;;;;17.74;42.66;101869.16;4982683;28;45470;-60
2022/05/08 01:22:57;;;;;;;;;20.25;16.50;;;;;17.71;42.90;101869.22;4982489;28;45308;-60
2022/05/08 01:25:22;;;;;;;;;27.25;22.25;;;;;17.69;42.72;101863.06;4982536;28;45602;-60
2022/05/08 01:27:48;;;;;;;;;22.00;20.75;;;;;17.66;42.83;101863.13;4982391;28;45275;-60
2022/05/08 01:30:13;;;;;;;;;23.75;21.00;;;;;17.60;43.11;101853.56;4982438;28;45366;-60
2022/05/08 01:32:38;;;;;;;;;21.50;20.00;;;;;17.59;42.96;101858.91;4982359;28;45331;-59
2022/05/08 01:35:04;;;;;;;;;24.25;21.50;;;;;17.58;42.89;101858.03;4982623;28;45422;-58
2022/05/08 01:37:30;;;;;;;;;26.00;21.50;;;;;17.55;43.53;101858.97;4982301;28;45256;-58
2022/05/08 01:39:56;;;;;;;;;28.75;23.75;;;;;17.53;42.85;101862.59;4982255;28;45290;-59
2022/05/08 01:42:22;;;;;;;;;24.50;22.25;;;;;17.49;42.83;101867.09;4982254;28;45484;-58
2022/05/08 01:44:47;;;;;;;;;26.00;24.00;;;;;17.46;43.11;101866.31;5002658;28;46064;-59
2022/05/08 01:49:57;;;;;;;;;18.25;18.25;;;;;17.39;43.12;101870.91;4982339;28;45327;-59
2022/05/08 01:52:22;;;;;;;;;22.25;22.25;;;;;17.36;43.13;101873.66;4982147;28;45248;-59
2022/05/08 01:54:48;;;;;;;;;24.75;22.50;;;;;17.32;43.31;101870.19;4982066;28;45302;-59
2022/05/08 01:57:13;;;;;;;;;23.50;21.00;;;;;17.30;43.54;101866.69;4982154;28;45255;-59
2022/05/08 01:59:38;;;;;;;;;24.75;19.25;;;;;17.28;43.37;101870.31;4981952;28;46353;-59
2022/05/08 02:02:04;;;;;;;;;24.00;19.75;;;;;17.24;43.53;101863.31;4982082;28;45655;-59
2022/05/08 02:04:30;;;;;;;;;25.75;24.25;;;;;17.21;43.53;101862.47;4982051;28;45403;-60
2022/05/08 02:06:56;;;;;;;;;20.50;20.50;;;;;17.19;43.39;101866.97;4982031;28;45271;-59
2022/05/08 02:09:21;;;;;;;;;19.50;19.25;;;;;17.16;43.75;101860.88;4981898;28;45466;-58
2022/05/08 02:11:47;;;;;;;;;26.75;24.00;;;;;17.15;43.75;101862.63;4981475;28;45539;-58
2022/05/08 02:14:12;;;;;;;;;19.50;19.50;;;;;17.13;43.64;101863.56;4981884;28;45275;-58
2022/05/08 02:16:37;;;;;;;;;20.50;19.25;;;;;17.10;43.37;101858.34;4981669;28;45276;-58
2022/05/08 02:19:02;;;;;;;;;21.00;19.25;;;;;17.05;43.56;101854.00;4982038;28;45264;-58
2022/05/08 02:21:28;;;;;;;;;25.25;18.50;;;;;17.03;43.93;101863.81;4981859;28;45299;-58
2022/05/08 02:23:53;;;;;;;;;27.00;22.75;;;;;16.99;43.86;101864.78;4981698;28;46728;-58
2022/05/08 02:26:18;;;;;;;;;23.00;21.00;;;;;16.96;44.04;101867.50;4981413;28;45396;-59
2022/05/08 02:28:44;;;;;;;;;24.50;23.50;;;;;16.95;43.94;101864.91;4981665;28;45385;-60
2022/05/08 02:31:10;;;;;;;;;23.75;23.75;;;;;16.92;43.85;101865.84;4981213;28;45579;-60
2022/05/08 02:33:35;;;;;;;;;25.50;22.50;;;;;16.81;44.13;101858.06;4981409;28;45349;-60
2022/05/08 02:36:00;;;;;;;;;27.25;25.25;;;;;16.87;44.18;101873.88;4981343;28;45284;-60
2022/05/08 02:38:26;;;;;;;;;26.50;22.25;;;;;16.84;44.32;101871.28;4981757;28;45276;-59
2022/05/08 02:40:52;;;;;;;;;23.50;23.25;;;;;16.82;43.96;101869.59;4981093;28;45185;-59
2022/05/08 02:43:20;;;;;;;;;23.50;19.25;;;;;16.80;43.99;101866.94;4981311;28;46267;-60
2022/05/08 02:45:46;;;;;;;;;29.00;24.75;;;;;16.79;44.56;101869.63;5005959;28;45327;-60
2022/05/08 02:48:12;;;;;;;;;29.00;25.00;;;;;16.73;44.34;101860.03;4981387;28;45319;-60
2022/05/08 02:50:37;;;;;;;;;26.75;24.75;;;;;16.71;44.42;101865.34;4981061;28;45255;-60
2022/05/08 02:53:03;;;;;;;;;25.00;23.25;;;;;16.69;44.69;101877.81;4981274;28;46149;-59
2022/05/08 03:00:56;;;;;;;;;26.75;25.50;;;;;16.58;44.74;101872.72;4980784;28;45389;-59
2022/05/08 03:03:21;;;;;;;;;30.50;26.25;;;;;16.55;44.60;101878.09;4980853;28;46277;-59
2022/05/08 03:05:47;;;;;;;;;26.50;24.50;;;;;16.53;44.79;101868.44;4981138;28;45384;-58
2022/05/08 03:08:15;;;;;;;;;32.75;30.25;;;;;16.50;44.54;101873.78;4981024;28;45465;-58
2022/05/08 03:13:35;;;;;;;;;33.75;28.25;;;;;16.45;44.64;101884.50;4980766;28;45914;-58
2022/05/08 03:16:00;;;;;;;;;30.50;25.00;;;;;16.28;45.06;101862.78;4980447;28;45291;-58
2022/05/08 03:18:26;;;;;;;;;27.50;26.50;;;;;16.39;44.90;101884.66;4979764;28;45370;-59
2022/05/08 03:20:51;;;;;;;;;35.00;29.25;;;;;16.34;45.32;101879.41;4980801;28;45162;-59
2022/05/08 03:23:17;;;;;;;;;24.00;22.50;;;;;16.34;45.22;101889.13;4980212;28;46234;-59
2022/05/08 03:25:45;;;;;;;;;31.25;27.00;;;;;16.31;45.31;101884.78;4980331;28;45307;-59
2022/05/08 03:28:12;;;;;;;;;30.25;26.75;;;;;16.30;45.21;101876.84;4963457;28;45446;-60
2022/05/08 03:30:38;;;;;;;;;31.25;27.50;;;;;16.27;45.22;101888.41;4980276;28;45355;-58
2022/05/08 03:33:04;;;;;;;;;29.50;28.00;;;;;16.22;45.39;101877.88;4980600;28;46163;-58
2022/05/08 03:35:29;;;;;;;;;31.75;29.00;;;;;16.23;45.51;101881.41;4980507;28;45433;-58
2022/05/08 03:37:54;;;;;;;;;27.00;26.25;;;;;16.20;45.47;101885.00;4980848;28;45362;-58
2022/05/08 03:40:20;;;;;;;;;25.25;25.25;;;;;16.18;45.26;101886.81;4980198;28;45335;-59
2022/05/08 03:42:45;;;;;;;;;30.25;27.25;;;;;16.16;45.15;101891.28;4980517;28;45351;-59
2022/05/08 03:45:10;;;;;;;;;40.50;30.25;;;;;16.14;45.45;101897.47;4987662;28;45804;-59
2022/05/08 03:47:36;;;;;;;;;34.00;32.25;;;;;16.12;45.72;101894.00;4980677;28;45300;-59
2022/05/08 03:50:02;;;;;;;;;36.25;31.50;;;;;16.11;45.48;101893.13;4962844;28;45407;-59
2022/05/08 03:52:28;;;;;;;;;39.00;32.50;;;;;16.09;45.27;101892.28;4980447;28;45972;-59
2022/05/08 03:54:53;;;;;;;;;38.75;32.25;;;;;16.06;45.76;101890.56;4980117;28;45265;-59
2022/05/08 03:57:18;;;;;;;;;42.75;36.25;;;;;16.06;45.76;101887.03;4980379;28;45306;-59
2022/05/08 03:59:44;;;;;;;;;44.50;35.25;;;;;16.04;45.87;101891.50;4980042;28;45414;-59
2022/05/08 04:02:09;;;;;;;;;45.50;36.00;;;;;16.03;45.85;101892.41;4980176;28;45315;-59
2022/05/08 04:04:36;;;;;;;;;43.75;37.00;;;;;16.00;45.61;101893.34;4980328;28;45308;-59
2022/05/08 04:07:01;;;;;;;;;44.75;39.00;;;;;15.99;46.08;101888.06;4962963;28;45356;-59
2022/05/08 04:09:28;;;;;;;;;49.25;39.50;;;;;15.98;45.90;101887.19;4980049;28;46388;-59
2022/05/08 04:11:53;;;;;;;;;45.75;36.00;;;;;15.98;45.96;101891.63;4979934;28;46039;-59
2022/05/08 04:14:18;;;;;;;;;46.75;37.75;;;;;15.97;46.06;101895.16;4979869;28;45307;-59
2022/05/08 04:16:44;;;;;;;;;50.25;41.75;;;;;15.96;46.21;101889.00;4980349;28;45313;-59
2022/05/08 04:19:09;;;;;;;;;48.50;38.25;;;;;15.98;46.11;101888.97;4979948;28;45362;-58
2022/05/08 04:21:35;;;;;;;;;47.50;40.25;;;;;15.95;45.93;101884.59;4979816;28;45352;-59
2022/05/08 04:24:18;;;;;;;;;48.25;39.25;;;;;15.94;46.53;101898.75;4978538;28;45462;-59
2022/05/08 04:26:45;;;;;;;;;54.00;43.00;;;;;15.92;46.50;101898.78;4980096;28;45290;-59
2022/05/08 04:29:10;;;;;;;;;50.25;40.25;;;;;15.89;46.21;101895.31;4979719;28;45266;-58
2022/05/08 04:31:36;;;;;;;;;55.75;44.25;;;;;15.88;46.18;101897.06;4979650;28;45912;-58
2022/05/08 04:34:02;;;;;;;;;56.75;43.50;;;;;15.89;46.53;101892.66;4979845;28;45311;-59
2022/05/08 04:36:28;;;;;;;;;50.75;42.00;;;;;15.89;46.25;101892.66;4965309;28;45317;-58
2022/05/08 04:38:53;;;;;;;;;46.00;39.75;;;;;15.87;46.41;101905.94;4983068;28;45218;-58
2022/05/08 04:41:19;;;;;;;;;52.00;42.75;;;;;15.84;46.57;101903.34;4983069;28;47154;-58
2022/05/08 04:43:44;;;;;;;;;51.25;40.50;;;;;15.85;46.93;101904.22;4985272;28;45282;-58
2022/05/08 04:46:10;;;;;;;;;51.75;43.00;;;;;15.84;46.76;101903.34;4986826;28;45301;-58
2022/05/08 04:48:37;;;;;;;;;53.50;42.50;;;;;15.84;46.48;101899.81;4982784;28;45498;-59
2022/05/08 04:51:02;;;;;;;;;50.00;41.75;;;;;15.83;46.73;101904.22;4965529;28;45511;-59
2022/05/08 04:53:28;;;;;;;;;56.75;42.75;;;;;15.83;46.70;101913.97;4982922;28;45319;-58
2022/05/08 04:55:53;;;;;;;;;53.00;40.50;;;;;15.83;46.96;101913.97;4983130;28;45327;-59
2022/05/08 04:58:18;;;;;;;;;50.75;39.75;;;;;15.83;46.93;101927.22;4982906;28;45326;-59
2022/05/08 05:00:44;;;;;;;;;49.75;38.50;;;;;15.82;46.83;101928.13;4982722;28;45359;-58
2022/05/08 05:03:09;;;;;;;;;51.50;40.50;;;;;15.79;46.89;101929.00;4982928;28;45473;-58
2022/05/08 05:05:35;;;;;;;;;55.50;45.25;;;;;15.81;47.12;101928.97;4983001;28;45424;-58
2022/05/08 05:08:00;;;;;;;;;56.25;44.75;;;;;15.82;47.20;101933.41;4982849;28;45259;-57
2022/05/08 05:10:25;;;;;;;;;55.50;45.75;;;;;15.83;47.33;101943.13;4982525;28;46291;-58
2022/05/08 05:12:53;;;;;;;;;50.75;41.25;;;;;15.81;46.80;101936.94;4982691;28;45294;-58
2022/05/08 05:15:18;;;;;;;;;51.25;40.75;;;;;15.86;47.02;101943.94;4982681;28;45383;-58
2022/05/08 05:17:44;;;;;;;;;54.75;42.75;;;;;15.85;47.00;101939.53;4982524;28;45484;-58
2022/05/08 05:20:09;;;;;;;;;54.50;43.25;;;;;15.86;46.90;101949.25;4965073;28;46938;-58
2022/05/08 05:22:35;;;;;;;;;54.50;44.75;;;;;15.85;47.53;101944.84;4982703;28;45824;-58
2022/05/08 05:25:03;;;;;;;;;55.00;43.75;;;;;15.85;47.19;101955.44;4982588;28;45503;-58
2022/05/08 05:27:28;;;;;;;;;57.25;46.00;;;;;15.87;47.05;101953.66;4982531;28;45339;-58
2022/05/08 05:29:53;;;;;;;;;50.00;41.75;;;;;15.86;47.39;101951.00;4982085;28;46020;-58
2022/05/08 05:32:19;;;;;;;;;55.00;45.00;;;;;15.88;47.43;101960.69;4982315;28;45462;-58
2022/05/08 05:34:44;;;;;;;;;57.50;44.75;;;;;15.86;47.73;101949.25;4982789;28;45353;-58
2022/05/08 05:37:10;;;;;;;;;54.75;43.00;;;;;15.89;47.59;101957.13;4982259;28;45244;-58
2022/05/08 05:39:35;;;;;;;;;57.75;42.75;;;;;15.87;47.56;101958.97;4981927;28;45299;-58
2022/05/08 05:42:01;;;;;;;;;57.00;45.50;;;;;15.91;47.29;101960.66;4982249;28;45230;-57
2022/05/08 05:44:26;;;;;;;;;53.25;41.50;;;;;15.92;47.67;101962.41;4997177;28;45430;-59
2022/05/08 05:49:38;;;;;;;;;55.50;43.25;;;;;15.93;47.52;101969.44;4982154;28;45818;-58
2022/05/08 05:52:05;;;;;;;;;64.25;50.00;;;;;15.96;47.59;101968.53;4982131;28;45318;-58
2022/05/08 05:54:31;;;;;;;;;57.00;43.75;;;;;15.97;47.27;101966.75;4982230;28;45493;-59
2022/05/08 05:56:56;;;;;;;;;57.00;44.75;;;;;15.96;47.68;101968.53;4981872;28;45540;-59
2022/05/08 05:59:22;;;;;;;;;53.25;43.25;;;;;15.97;47.77;101969.41;4981571;28;46038;-58
2022/05/08 06:01:48;;;;;;;;;57.00;44.00;;;;;16.03;47.68;101985.19;4981694;28;45530;-58
2022/05/08 06:04:13;;;;;;;;;50.50;42.00;;;;;16.04;47.45;101982.50;4982251;28;45323;-58
2022/05/08 06:06:39;;;;;;;;;49.75;41.50;;;;;16.05;47.93;101978.06;4981667;28;45470;-58
2022/05/08 06:09:04;;;;;;;;;51.25;43.00;;;;;16.07;48.01;101981.59;4981377;28;45930;-59
2022/05/08 06:11:29;;;;;;;;;56.50;46.00;;;;;16.08;47.69;101980.69;4981668;28;45398;-59
2022/05/08 06:13:55;;;;;;;;;49.50;40.50;;;;;16.11;47.98;101977.09;4981795;28;45417;-59
2022/05/08 06:16:20;;;;;;;;;53.50;43.75;;;;;16.12;47.89;101986.81;4981449;28;45352;-58
2022/05/08 06:18:45;;;;;;;;;57.00;45.00;;;;;16.14;47.77;101977.03;4981631;28;45393;-59
2022/05/08 06:21:11;;;;;;;;;53.25;43.00;;;;;16.15;48.08;101978.78;4981711;28;45364;-59
2022/05/08 06:23:37;;;;;;;;;56.00;43.50;;;;;16.16;48.06;101981.44;4981736;28;45357;-59
2022/05/08 06:26:03;;;;;;;;;57.25;43.50;;;;;16.19;47.67;101991.13;4981412;28;45296;-59
2022/05/08 06:28:29;;;;;;;;;59.25;46.25;;;;;16.18;47.79;101976.97;4963912;28;47396;-58
2022/05/08 06:30:55;;;;;;;;;61.00;47.25;;;;;16.24;47.78;101984.81;4981068;28;45446;-59
2022/05/08 06:33:20;;;;;;;;;51.50;41.25;;;;;16.25;47.67;101983.91;4981718;28;45554;-58
2022/05/08 06:35:46;;;;;;;;;55.25;43.50;;;;;16.27;47.78;101988.31;4981478;28;45375;-45
2022/05/08 06:38:12;;;;;;;;;53.75;41.25;;;;;16.30;48.15;101990.91;4981157;28;45302;-48
2022/05/08 06:40:38;;;;;;;;;56.25;44.75;;;;;16.32;47.96;101994.41;4980821;28;45279;-48
2022/05/08 06:43:04;;;;;;;;;52.75;42.50;;;;;16.34;47.84;101992.59;4981594;28;45552;-47
2022/05/08 06:45:29;;;;;;;;;58.50;46.25;;;;;16.36;48.16;101993.44;5005973;28;45493;-48
2022/05/08 06:47:55;;;;;;;;;55.50;42.75;;;;;16.40;48.06;101995.13;4963797;28;45989;-46
2022/05/08 06:50:20;;;;;;;;;56.75;46.00;;;;;16.43;48.16;101989.78;4981298;28;45300;-49
2022/05/08 06:52:46;;;;;;;;;61.50;44.25;;;;;16.46;47.91;101997.66;4981383;28;45211;-48
2022/05/08 06:55:12;;;;;;;;;61.25;47.00;;;;;16.50;47.91;101993.19;4981206;28;45387;-45
2022/05/08 06:57:37;;;;;;;;;60.50;47.00;;;;;16.54;48.31;101992.22;4981071;28;47052;-44
2022/05/08 07:02:48;;;;;;;;;52.00;42.50;;;;;16.61;47.91;101998.28;4966541;28;45270;-49
2022/05/08 07:05:13;;;;;;;;;54.00;43.50;;;;;16.63;47.96;102004.44;4980921;28;45324;-49
2022/05/08 07:07:39;;;;;;;;;53.25;41.25;;;;;16.65;48.08;102008.78;4980886;28;45217;-46
2022/05/08 07:10:04;;;;;;;;;51.50;42.25;;;;;16.68;48.39;102007.91;4962998;28;45348;-45
2022/05/08 07:12:30;;;;;;;;;54.50;44.25;;;;;16.67;48.41;102008.78;4981274;28;45164;-45
2022/05/08 07:14:55;;;;;;;;;64.00;48.50;;;;;16.73;48.12;102011.31;4980553;28;45607;-45
2022/05/08 07:17:24;;;;;;;;;54.25;43.50;;;;;16.75;48.05;102017.47;4963288;28;47103;-44
2022/05/08 07:19:49;;;;;;;;;58.00;44.00;;;;;16.78;48.32;102014.75;4980621;28;45385;-46
2022/05/08 07:22:16;;;;;;;;;53.25;43.00;;;;;16.81;48.08;102014.69;4980953;28;45367;-51
2022/05/08 07:24:41;;;;;;;;;53.50;43.75;;;;;16.81;48.43;102012.03;4962924;28;45450;-51
2022/05/08 07:27:10;;;;;;;;;46.75;39.00;;;;;16.86;48.25;102012.81;4980745;28;45241;-48
2022/05/08 07:29:36;;;;;;;;;53.75;42.50;;;;;16.90;48.34;102017.19;4980386;28;45494;-46
2022/05/08 07:32:02;;;;;;;;;52.75;41.75;;;;;16.93;47.98;102012.72;4980706;28;45404;-52
2022/05/08 07:37:11;;;;;;;;;51.25;42.00;;;;;17.01;48.16;102016.09;4980371;28;45394;-51
2022/05/08 07:39:36;;;;;;;;;53.75;39.00;;;;;17.01;48.40;102019.63;4980295;28;45330;-54
2022/05/08 07:42:02;;;;;;;;;54.25;40.00;;;;;17.07;48.36;102013.31;4980404;28;45319;-52
2022/05/08 07:44:27;;;;;;;;;51.00;42.50;;;;;17.11;48.13;102024.75;4994031;28;45402;-47
2022/05/08 07:46:53;;;;;;;;;48.25;39.50;;;;;17.14;48.09;102030.84;4990262;28;45458;-49
2022/05/08 07:49:18;;;;;;;;;54.50;42.50;;;;;17.18;48.17;102031.66;4980434;28;45262;-50
2022/05/08 07:51:43;;;;;;;;;54.00;42.75;;;;;17.18;48.25;102027.25;4980389;28;45318;-46
2022/05/08 07:54:09;;;;;;;;;52.00;40.50;;;;;17.25;48.07;102033.28;4980332;28;45294;-49
2022/05/08 07:56:34;;;;;;;;;53.75;43.00;;;;;17.28;48.17;102033.25;4962801;28;47485;-46
2022/05/08 07:59:00;;;;;;;;;52.75;41.50;;;;;17.32;47.98;102039.34;4980403;28;45274;-48
2022/05/08 08:01:25;;;;;;;;;55.25;42.50;;;;;17.27;48.19;102020.84;4980143;28;45266;-45
2022/05/08 08:03:51;;;;;;;;;51.50;40.50;;;;;17.38;48.25;102036.53;4980213;28;45520;-55
2022/05/08 08:06:16;;;;;;;;;49.25;41.00;;;;;17.43;48.01;102039.09;4979937;28;46110;-47
2022/05/08 08:08:42;;;;;;;;;54.25;41.00;;;;;17.44;48.18;102035.53;4980254;28;45224;-49
2022/05/08 08:11:08;;;;;;;;;51.00;41.00;;;;;17.49;48.15;102045.16;4978015;28;45298;-46
2022/05/08 08:13:35;;;;;;;;;54.50;42.25;;;;;17.55;47.97;102046.81;4980161;28;45394;-46
2022/05/08 08:16:01;;;;;;;;;55.50;41.50;;;;;17.58;48.14;102052.03;4979440;28;45514;-46
2022/05/08 08:18:27;;;;;;;;;48.50;39.75;;;;;17.62;48.05;102040.44;4977691;28;45422;-49
2022/05/08 08:20:52;;;;;;;;;51.00;40.75;;;;;17.67;48.15;102043.88;4980004;28;45318;-46
2022/05/08 08:23:18;;;;;;;;;50.75;38.25;;;;;17.72;48.24;102038.44;4980050;28;45473;-51
2022/05/08 08:25:44;;;;;;;;;47.25;38.25;;;;;17.77;47.83;102041.84;4979523;28;45363;-49
2022/05/08 08:28:10;;;;;;;;;51.50;39.75;;;;;17.81;47.92;102046.19;4978918;28;45551;-50
2022/05/08 08:30:36;;;;;;;;;53.00;43.25;;;;;17.86;48.00;102049.63;4988774;28;45444;-47
2022/05/08 08:33:02;;;;;;;;;51.00;38.25;;;;;17.91;48.22;102048.63;4962364;28;45347;-49
2022/05/08 08:35:27;;;;;;;;;49.00;39.00;;;;;17.94;47.69;102043.28;4991302;28;45397;-51
2022/05/08 08:37:53;;;;;;;;;54.50;42.25;;;;;17.99;47.63;102046.69;4981708;28;45318;-49
2022/05/08 08:40:20;;;;;;;;;52.50;40.25;;;;;18.03;47.68;102051.03;4998823;28;45171;-46
2022/05/08 08:42:46;;;;;;;;;48.00;39.00;;;;;18.07;47.80;102039.38;4997892;28;45623;-49
2022/05/08 08:48:09;;;;;;;;;51.00;40.00;;;;;18.18;47.66;102050.63;4982678;28;45489;-47
2022/05/08 08:50:35;;;;;;;;;49.00;37.25;;;;;18.24;47.73;102043.41;5007151;28;45305;-55
2022/05/08 08:53:04;;;;;;;;;53.25;42.50;;;;;18.28;47.56;102043.28;4993465;28;45567;-49
2022/05/08 08:55:31;;;;;;;;;48.00;37.00;;;;;18.32;47.94;102036.09;4991728;28;46607;-55
2022/05/08 08:57:56;;;;;;;;;50.75;38.75;;;;;18.38;47.61;102038.63;4986843;28;45391;-49
2022/05/08 09:00:22;;;;;;;;;47.75;37.00;;;;;18.45;47.70;102039.31;4983769;28;45347;-55
2022/05/08 09:02:48;;;;;;;;;47.25;35.50;;;;;18.51;47.59;102042.72;4986809;28;45453;-41
2022/05/08 09:05:14;;;;;;;;;50.00;39.25;;;;;18.57;47.70;102043.44;4978897;28;45372;-48
2022/05/08 09:07:39;;;;;;;;;43.25;35.25;;;;;18.64;47.47;102045.91;4979108;28;45447;-43
2022/05/08 09:10:10;;;;;;;;;45.50;35.75;;;;;18.72;47.74;102045.69;4987758;28;45331;-46
2022/05/08 09:12:36;;;;;;;;;49.50;37.75;;;;;18.79;47.27;102041.94;4961510;28;45488;-44
2022/05/08 09:15:27;;;;;;;;;48.50;38.25;;;;;18.86;47.40;102042.63;4978641;28;45354;-46
2022/05/08 09:18:21;;;;;;;;;50.00;40.00;;;;;18.94;47.17;102042.44;4978754;28;45332;-47
2022/05/08 09:20:48;;;;;;;;;47.25;39.25;;;;;18.98;47.44;102042.31;4969337;28;45193;-47
2022/05/08 09:23:21;;;;;;;;;44.75;36.75;;;;;19.05;47.21;102047.47;4981746;28;45351;-46
2022/05/08 09:25:59;;;;;;;;;45.00;36.25;;;;;19.12;47.22;102052.56;4982219;28;46208;-44
2022/05/08 09:28:26;;;;;;;;;49.75;38.75;;;;;19.19;46.98;102047.06;4982684;28;45426;-49
2022/05/08 09:30:55;;;;;;;;;50.50;37.50;;;;;19.27;47.19;102050.34;4985418;28;45338;-51
2022/05/08 09:33:23;;;;;;;;;48.00;37.50;;;;;19.28;47.34;102037.00;4966019;28;45355;-51
2022/05/08 09:35:48;;;;;;;;;44.25;34.00;;;;;19.37;46.76;102046.50;4982521;28;46169;-51
2022/05/08 09:38:14;;;;;;;;;50.50;38.75;;;;;19.45;46.61;102040.94;4982494;28;45314;-55
2022/05/08 09:40:39;;;;;;;;;51.75;40.25;;;;;19.49;46.73;102056.78;4982104;28;45437;-61
2022/05/08 09:43:05;;;;;;;;;46.25;37.25;;;;;19.57;46.60;102053.00;4982452;28;45248;-59
2022/05/08 09:45:31;;;;;;;;;46.75;40.00;;;;;19.62;46.53;102048.41;5007132;28;46312;-54
2022/05/08 09:47:57;;;;;;;;;51.50;39.75;;;;;19.68;46.88;102047.34;4980896;28;45379;-55
2022/05/08 09:50:22;;;;;;;;;47.50;38.25;;;;;19.72;46.46;102041.88;4982168;28;45531;-53
2022/05/08 09:52:48;;;;;;;;;51.50;40.75;;;;;19.78;46.29;102044.31;4980925;28;46207;-53
2022/05/08 09:55:14;;;;;;;;;50.25;40.25;;;;;19.84;46.80;102042.44;4981700;28;45398;-52
2022/05/08 09:57:40;;;;;;;;;49.50;37.75;;;;;19.92;46.12;102043.94;4981965;28;45316;-51
2022/05/08 10:00:07;;;;;;;;;47.75;37.75;;;;;20.01;46.91;102048.06;4981778;28;45323;-54
2022/05/08 10:02:34;;;;;;;;;51.00;40.50;;;;;20.10;46.08;102041.53;4982166;28;45319;-52
2022/05/08 10:05:00;;;;;;;;;50.75;40.25;;;;;20.17;46.36;102037.75;4981796;28;45346;-52
2022/05/08 10:07:26;;;;;;;;;47.50;38.50;;;;;20.25;46.36;102032.13;4993347;28;45975;-55
2022/05/08 10:15:31;;;;;;;;;53.50;42.75;;;;;20.46;45.93;102034.09;5001297;28;45499;-56
2022/05/08 10:18:22;;;;;;;;;67.25;51.50;;;;;20.55;45.66;102026.66;5001325;28;46503;-52
2022/05/08 10:21:08;;;;;;;;;48.50;39.00;;;;;20.62;45.75;102025.50;5001399;28;45247;-50
2022/05/08 10:23:40;;;;;;;;;47.50;37.00;;;;;20.71;46.18;102022.53;4999903;28;45447;-54
2022/05/08 10:26:20;;;;;;;;;53.50;40.00;;;;;20.85;45.84;102021.16;5000174;28;47041;-50
2022/05/08 10:29:04;;;;;;;;;49.50;40.00;;;;;21.00;46.09;102022.38;4993635;28;45875;-51
2022/05/08 10:31:49;;;;;;;;;41.50;34.50;;;;;21.14;45.92;102029.88;4981812;28;45219;-50
2022/05/08 10:34:15;;;;;;;;;48.25;37.00;;;;;21.24;45.90;102029.47;4980664;28;45620;-52
2022/05/08 10:37:10;;;;;;;;;46.50;36.50;;;;;21.41;45.65;102030.63;4962832;28;47250;-49
2022/05/08 10:39:42;;;;;;;;;43.50;35.75;;;;;21.59;45.81;102029.88;4981149;28;45465;-52
2022/05/08 10:42:50;;;;;;;;;46.25;38.25;;;;;21.79;45.54;102017.50;4981367;28;45223;-49
2022/05/08 10:45:30;;;;;;;;;54.75;42.50;;;;;21.99;45.18;102019.34;5005404;28;45665;-52
2022/05/08 10:47:56;;;;;;;;;49.50;39.50;;;;;22.19;45.40;102013.16;4982635;28;46283;-52
2022/05/08 10:50:21;;;;;;;;;45.00;36.50;;;;;22.40;45.24;102011.38;4979905;28;45196;-51
2022/05/08 10:52:47;;;;;;;;;47.00;37.50;;;;;22.64;45.26;102010.34;4980568;28;45374;-50
2022/05/08 10:55:15;;;;;;;;;50.75;39.00;;;;;22.86;45.30;102015.59;4981097;28;45492;-49
2022/05/08 10:57:41;;;;;;;;;50.75;40.50;;;;;23.05;45.15;102008.44;4981174;28;47292;-50
2022/05/08 11:00:11;;;;;;;;;48.00;38.50;;;;;23.27;44.95;102004.78;4980791;28;45412;-49
2022/05/08 11:02:45;;;;;;;;;29.75;28.00;;;;;23.51;44.86;102012.59;4981249;28;45334;-52
2022/05/08 11:05:12;;;;;;;;;48.50;39.00;;;;;23.76;44.68;102014.94;4980756;28;45378;-50
2022/05/08 11:07:39;;;;;;;;;51.75;40.50;;;;;24.05;44.57;102011.72;4979687;28;48296;-52
2022/05/08 11:10:21;;;;;;;;;52.50;43.00;;;;;24.39;44.07;102016.22;4990801;28;45693;-50
2022/05/08 11:13:03;;;;;;;;;42.75;35.25;;;;;24.73;44.02;102022.53;4999942;28;45219;-47
2022/05/08 11:15:30;;;;;;;;;48.50;37.50;;;;;25.01;44.26;102015.63;4995707;28;45451;-44
2022/05/08 11:18:15;;;;;;;;;44.25;35.00;;;;;25.31;43.84;102010.34;4999539;28;46325;-47
2022/05/08 11:21:03;;;;;;;;;50.00;39.75;;;;;25.62;43.59;102014.00;4999760;28;45486;-47
2022/05/08 11:23:31;;;;;;;;;40.25;35.50;;;;;25.93;43.32;102012.19;5000120;28;45252;-45
2022/05/08 11:25:59;;;;;;;;;42.50;36.50;;;;;26.32;43.67;102011.75;4980004;28;45557;-47
2022/05/08 11:28:26;;;;;;;;;47.50;38.75;;;;;26.65;43.16;102011.47;4988198;28;46248;-46
2022/05/08 11:30:53;;;;;;;;;44.75;35.00;;;;;27.06;43.73;102008.03;4999553;28;45298;-44
2022/05/08 11:36:22;;;;;;;;;44.00;36.75;;;;;27.99;42.78;102007.34;4998329;28;45310;-44
2022/05/08 11:38:50;;;;;;;;;40.50;34.75;;;;;28.42;42.46;101995.41;4999523;28;47131;-46
2022/05/08 11:41:21;;;;;;;;;41.50;36.25;;;;;28.88;42.58;101990.41;4999974;28;45358;-46